createdAt,value
2019-04-21T00:00:26.071Z,19.16
2019-04-21T00:01:18.557Z,19.15
2019-04-21T00:17:33.485Z,19.15
2019-04-21T00:18:17.588Z,19.16
2019-04-21T00:34:15.671Z,19.13
2019-04-21T01:20:18.697Z,19.09
2019-04-21T01:21:15.086Z,19.09
2019-04-21T01:22:14.046Z,19.08
2019-04-21T01:23:14.993Z,19.08
2019-04-21T09:30:15.435Z,19.29
2019-04-21T09:33:14.346Z,19.33
2019-04-21T09:35:24.359Z,19.33
2019-04-21T09:41:36.047Z,19.35
2019-04-21T09:45:22.997Z,19.36
2019-04-21T09:46:14.438Z,19.36
2019-04-21T09:50:15.348Z,19.37
2019-04-21T09:51:13.817Z,19.37
2019-04-21T10:03:23.247Z,19.4
2019-04-21T10:04:14.646Z,19.43
2019-04-21T10:05:14.985Z,19.43
2019-04-21T10:06:20.918Z,19.43
2019-04-21T10:08:14.780Z,19.43
2019-04-21T10:09:22.083Z,19.45
2019-04-21T10:10:15.206Z,19.45
2019-04-21T10:11:14.423Z,19.46
2019-04-21T10:12:14.521Z,19.49
2019-04-21T10:13:15.316Z,19.46
2019-04-21T10:14:14.106Z,19.49
2019-04-21T10:15:14.431Z,19.46
2019-04-21T10:16:13.648Z,19.47
2019-04-21T10:17:15.422Z,19.46
2019-04-21T10:18:13.573Z,19.47
2019-04-21T10:19:13.657Z,19.45
2019-04-21T10:20:14.051Z,19.43
2019-04-21T10:21:13.591Z,19.45
2019-04-21T10:22:15.091Z,19.46
2019-04-21T10:23:13.884Z,19.43
2019-04-21T10:24:12.777Z,19.45
2019-04-21T10:25:12.883Z,19.47
2019-04-21T10:26:12.856Z,19.49
2019-04-21T10:27:15.024Z,19.47
2019-04-21T10:28:13.200Z,19.5
2019-04-21T10:30:14.519Z,19.47
2019-04-21T10:31:12.752Z,19.45
2019-04-21T10:32:15.323Z,19.49
2019-04-21T10:33:12.897Z,19.47
2019-04-21T10:34:13.757Z,19.46
2019-04-21T10:35:13.474Z,19.46
2019-04-21T10:36:13.523Z,19.45
2019-04-21T10:37:13.711Z,19.45
2019-04-21T10:39:15.382Z,19.46
2019-04-21T10:40:14.188Z,19.43
2019-04-21T10:41:13.195Z,19.42
2019-04-21T10:42:13.655Z,19.4
2019-04-21T10:43:27.491Z,19.4
2019-04-21T10:44:13.989Z,19.4
2019-04-21T10:45:13.154Z,19.4
2019-04-21T10:46:13.371Z,19.39
2019-04-21T10:46:56.157Z,19.37
2019-04-21T10:47:50.620Z,19.37
2019-04-21T10:48:44.523Z,19.42
2019-04-21T10:49:45.084Z,19.47
2019-04-21T10:50:45.593Z,19.49
2019-04-21T10:51:44.695Z,19.47
2019-04-21T10:52:45.104Z,19.49
2019-04-21T10:53:56.092Z,19.47
2019-04-21T10:56:50.969Z,19.46
2019-04-21T10:57:44.829Z,19.45
2019-04-21T10:58:44.844Z,19.43
2019-04-21T11:00:46.490Z,19.45
2019-04-21T11:01:45.474Z,19.45
2019-04-21T11:02:44.588Z,19.43
2019-04-21T11:03:45.204Z,19.42
2019-04-21T11:04:47.225Z,19.4
2019-04-21T11:05:45.191Z,19.43
2019-04-21T11:06:44.741Z,19.43
2019-04-21T11:09:44.609Z,19.39
2019-04-21T11:10:45.883Z,19.43
2019-04-21T11:11:53.701Z,19.42
2019-04-21T11:12:48.099Z,19.42
2019-04-21T11:13:44.649Z,19.4
2019-04-21T11:14:45.471Z,19.39
2019-04-21T11:15:45.678Z,19.4
2019-04-21T11:16:56.740Z,19.4
2019-04-21T11:17:52.436Z,19.39
2019-04-21T11:18:44.444Z,19.4
2019-04-21T11:19:44.424Z,19.4
2019-04-21T11:20:45.016Z,19.4
2019-04-21T11:21:45.222Z,19.39
2019-04-21T11:22:44.479Z,19.4
2019-04-21T11:23:46.088Z,19.4
2019-04-21T11:24:45.229Z,19.4
2019-04-21T11:25:44.570Z,19.39
2019-04-21T11:26:45.758Z,19.42
2019-04-21T11:27:45.148Z,19.42
2019-04-21T11:28:45.484Z,19.42
2019-04-21T11:29:44.572Z,19.43
2019-04-21T11:30:44.862Z,19.43
2019-04-21T11:31:45.492Z,19.46
2019-04-21T11:32:51.229Z,19.46
2019-04-21T11:33:47.398Z,19.46
2019-04-21T11:34:45.622Z,19.46
2019-04-21T11:35:45.796Z,19.46
2019-04-21T11:36:46.138Z,19.46
2019-04-21T11:37:44.450Z,19.47
2019-04-21T11:40:45.756Z,19.49
2019-04-21T11:41:45.988Z,19.5
2019-04-21T11:42:46.166Z,19.49
2019-04-21T11:43:45.709Z,19.5
2019-04-21T11:44:45.274Z,19.52
2019-04-21T11:45:44.664Z,19.54
2019-04-21T11:46:44.773Z,19.52
2019-04-21T11:47:46.027Z,19.53
2019-04-21T11:48:46.372Z,19.54
2019-04-21T11:49:45.539Z,19.54
2019-04-21T11:50:44.623Z,19.54
2019-04-21T11:51:45.221Z,19.52
2019-04-21T11:52:45.458Z,19.52
2019-04-21T11:53:44.664Z,19.53
2019-04-21T11:54:44.841Z,19.53
2019-04-21T11:55:57.081Z,19.52
2019-04-21T11:56:45.461Z,19.53
2019-04-21T11:57:56.577Z,19.52
2019-04-21T11:58:46.065Z,19.53
2019-04-21T11:59:46.038Z,19.53
2019-04-21T12:00:45.675Z,19.52
2019-04-21T12:01:46.003Z,19.5
2019-04-21T12:02:45.999Z,19.47
2019-04-21T12:03:45.709Z,19.52
2019-04-21T12:04:45.634Z,19.47
2019-04-21T12:05:45.730Z,19.47
2019-04-21T12:06:57.845Z,19.46
2019-04-21T12:07:45.465Z,19.47
2019-04-21T12:09:45.892Z,19.49
2019-04-21T12:10:45.359Z,19.47
2019-04-21T12:11:45.573Z,19.52
2019-04-21T12:12:45.676Z,19.49
2019-04-21T12:13:46.288Z,19.47
2019-04-21T12:14:46.073Z,19.49
2019-04-21T12:15:45.394Z,19.45
2019-04-21T12:16:44.425Z,19.46
2019-04-21T12:17:46.060Z,19.49
2019-04-21T12:18:45.419Z,19.46
2019-04-21T12:19:46.424Z,19.49
2019-04-21T12:20:45.457Z,19.5
2019-04-21T12:22:45.684Z,19.46
2019-04-21T12:23:45.050Z,19.46
2019-04-21T12:24:45.284Z,19.49
2019-04-21T12:25:45.569Z,19.46
2019-04-21T12:26:46.570Z,19.46
2019-04-21T12:27:46.013Z,19.47
2019-04-21T12:28:46.202Z,19.47
2019-04-21T12:29:46.313Z,19.47
2019-04-21T12:30:45.493Z,19.47
2019-04-21T12:31:45.719Z,19.46
2019-04-21T12:32:44.598Z,19.46
2019-04-21T12:33:46.119Z,19.49
2019-04-21T12:34:55.413Z,19.47
2019-04-21T12:35:46.281Z,19.45
2019-04-21T12:36:44.378Z,19.46
2019-04-21T12:37:45.048Z,19.46
2019-04-21T12:39:45.279Z,19.46
2019-04-21T12:40:44.679Z,19.46
2019-04-21T12:41:45.039Z,19.43
2019-04-21T12:42:45.710Z,19.46
2019-04-21T12:43:44.776Z,19.45
2019-04-21T12:44:45.726Z,19.46
2019-04-21T12:45:44.548Z,19.46
2019-04-21T12:46:45.824Z,19.43
2019-04-21T12:47:53.939Z,19.45
2019-04-21T12:48:44.607Z,19.46
2019-04-21T12:49:45.865Z,19.46
2019-04-21T12:50:46.058Z,19.43
2019-04-21T12:51:44.361Z,19.46
2019-04-21T12:52:45.634Z,19.45
2019-04-21T12:53:45.874Z,19.45
2019-04-21T12:54:46.091Z,19.45
2019-04-21T12:55:51.800Z,19.43
2019-04-21T12:56:45.812Z,19.45
2019-04-21T12:57:45.696Z,19.45
2019-04-21T12:58:44.631Z,19.43
2019-04-21T12:59:44.904Z,19.47
2019-04-21T13:00:45.221Z,19.49
2019-04-21T13:01:45.529Z,19.52
2019-04-21T13:02:45.841Z,19.52
2019-04-21T13:03:46.148Z,19.53
2019-04-21T13:04:46.454Z,19.54
2019-04-21T13:05:45.668Z,19.56
2019-04-21T13:06:46.048Z,19.56
2019-04-21T13:07:45.995Z,19.61
2019-04-21T13:09:46.501Z,19.61
2019-04-21T13:10:44.662Z,19.58
2019-04-21T13:11:44.373Z,19.6
2019-04-21T13:12:44.364Z,19.64
2019-04-21T13:13:44.397Z,19.63
2019-04-21T13:14:44.395Z,19.65
2019-04-21T13:15:45.536Z,19.67
2019-04-21T13:16:45.955Z,19.64
2019-04-21T13:17:47.644Z,19.65
2019-04-21T13:18:45.233Z,19.7
2019-04-21T13:19:45.574Z,19.68
2019-04-21T13:20:44.743Z,19.65
2019-04-21T13:21:46.200Z,19.68
2019-04-21T13:22:46.326Z,19.68
2019-04-21T13:23:45.416Z,19.68
2019-04-21T13:24:44.585Z,19.74
2019-04-21T13:25:46.088Z,19.71
2019-04-21T13:27:46.883Z,19.71
2019-04-21T13:28:44.897Z,19.71
2019-04-21T13:29:44.522Z,19.73
2019-04-21T13:30:44.707Z,19.74
2019-04-21T13:31:44.839Z,19.71
2019-04-21T13:32:45.444Z,19.73
2019-04-21T13:33:44.485Z,19.74
2019-04-21T13:34:44.631Z,19.74
2019-04-21T13:35:45.064Z,19.73
2019-04-21T13:36:45.881Z,19.75
2019-04-21T13:37:46.071Z,19.75
2019-04-21T13:43:47.169Z,19.78
2019-04-21T13:44:44.906Z,19.78
2019-04-21T13:45:46.049Z,19.8
2019-04-21T13:46:49.433Z,19.78
2019-04-21T13:47:44.666Z,19.8
2019-04-21T13:48:46.805Z,19.81
2019-04-21T13:49:45.698Z,19.84
2019-04-21T13:50:44.528Z,19.78
2019-04-21T13:51:46.273Z,19.82
2019-04-21T13:52:46.511Z,19.82
2019-04-21T13:53:46.157Z,19.8
2019-04-21T13:54:45.833Z,19.82
2019-04-21T13:55:46.288Z,19.82
2019-04-21T13:56:47.212Z,19.81
2019-04-21T13:57:46.681Z,19.81
2019-04-21T13:58:44.524Z,19.82
2019-04-21T13:59:44.800Z,19.82
2019-04-21T14:00:45.945Z,19.81
2019-04-21T14:01:45.956Z,19.84
2019-04-21T14:02:45.100Z,19.81
2019-04-21T14:03:44.968Z,19.82
2019-04-21T14:04:45.585Z,19.81
2019-04-21T14:05:44.853Z,19.81
2019-04-21T14:06:45.168Z,19.82
2019-04-21T14:07:44.406Z,19.82
2019-04-21T14:08:52.650Z,19.81
2019-04-21T14:10:44.468Z,19.84
2019-04-21T14:11:45.540Z,19.85
2019-04-21T14:12:44.678Z,19.82
2019-04-21T14:13:45.014Z,19.81
2019-04-21T14:14:46.635Z,19.82
2019-04-21T14:15:52.016Z,19.81
2019-04-21T14:16:46.026Z,19.82
2019-04-21T14:17:44.955Z,19.8
2019-04-21T14:18:45.768Z,19.78
2019-04-21T14:19:45.870Z,19.75
2019-04-21T14:20:45.170Z,19.78
2019-04-21T14:21:53.281Z,19.74
2019-04-21T14:22:44.630Z,19.73
2019-04-21T14:23:59.588Z,19.75
2019-04-21T14:24:46.031Z,19.74
2019-04-21T14:25:46.041Z,19.74
2019-04-21T14:26:44.798Z,19.73
2019-04-21T14:28:45.233Z,19.68
2019-04-21T14:29:46.161Z,19.7
2019-04-21T14:30:46.294Z,19.68
2019-04-21T14:31:44.535Z,19.68
2019-04-21T14:32:44.572Z,19.67
2019-04-21T14:33:46.106Z,19.67
2019-04-21T14:34:54.217Z,19.65
2019-04-21T14:35:45.268Z,19.68
2019-04-21T14:36:44.772Z,19.67
2019-04-21T14:37:44.790Z,19.65
2019-04-21T14:38:44.994Z,19.65
2019-04-21T14:40:46.351Z,19.67
2019-04-21T14:41:44.791Z,19.63
2019-04-21T14:42:44.711Z,19.64
2019-04-21T14:43:46.120Z,19.64
2019-04-21T14:44:45.338Z,19.65
2019-04-21T14:45:45.457Z,19.63
2019-04-21T14:46:45.172Z,19.6
2019-04-21T14:47:46.008Z,19.63
2019-04-21T14:48:45.676Z,19.64
2019-04-21T14:49:45.170Z,19.61
2019-04-21T14:50:44.596Z,19.6
2019-04-21T14:51:47.592Z,19.6
2019-04-21T14:52:44.699Z,19.6
2019-04-21T14:53:45.839Z,19.63
2019-04-21T14:54:44.897Z,19.58
2019-04-21T14:55:46.047Z,19.58
2019-04-21T14:56:45.214Z,19.57
2019-04-21T14:57:45.435Z,19.6
2019-04-21T14:58:47.059Z,19.57
2019-04-21T14:59:45.143Z,19.6
2019-04-21T15:00:46.156Z,19.58
2019-04-21T15:01:46.276Z,19.6
2019-04-21T15:02:45.774Z,19.6
2019-04-21T15:03:45.882Z,19.58
2019-04-21T15:04:46.121Z,19.56
2019-04-21T15:05:45.384Z,19.56
2019-04-21T15:06:45.819Z,19.57
2019-04-21T15:07:45.726Z,19.56
2019-04-21T15:08:45.223Z,19.57
2019-04-21T15:09:46.633Z,19.56
2019-04-21T15:10:45.584Z,19.56
2019-04-21T15:11:44.714Z,19.56
2019-04-21T15:12:45.866Z,19.54
2019-04-21T15:13:46.110Z,19.56
2019-04-21T15:14:44.663Z,19.53
2019-04-21T15:15:45.985Z,19.54
2019-04-21T15:16:45.281Z,19.54
2019-04-21T15:17:46.546Z,19.54
2019-04-21T15:18:44.768Z,19.54
2019-04-21T15:20:50.764Z,19.56
2019-04-21T15:21:44.900Z,19.53
2019-04-21T15:22:44.593Z,19.54
2019-04-21T15:23:46.771Z,19.53
2019-04-21T15:24:44.716Z,19.52
2019-04-21T15:25:46.226Z,19.54
2019-04-21T15:26:44.573Z,19.56
2019-04-21T15:27:46.877Z,19.52
2019-04-21T15:28:44.765Z,19.57
2019-04-21T15:29:45.169Z,19.6
2019-04-21T15:30:44.979Z,19.68
2019-04-21T15:31:46.797Z,19.68
2019-04-21T15:32:44.655Z,19.7
2019-04-21T15:33:45.487Z,19.68
2019-04-21T15:34:44.648Z,19.73
2019-04-21T15:35:45.195Z,19.71
2019-04-21T15:36:46.461Z,19.73
2019-04-21T15:37:02.231Z,19.78
2019-04-21T15:38:02.365Z,19.77
2019-04-21T15:39:01.833Z,19.75
2019-04-21T15:39:29.965Z,19.8
2019-04-21T15:41:28.322Z,19.82
2019-04-21T15:42:28.650Z,19.85
2019-04-21T15:43:40.843Z,19.84
2019-04-21T15:44:40.849Z,19.84
2019-04-21T15:45:53.093Z,19.86
2019-04-21T15:46:53.577Z,19.88
2019-04-21T15:47:52.156Z,19.88
2019-04-21T15:48:53.176Z,19.88
2019-04-21T15:50:52.136Z,19.86
2019-04-21T15:51:52.164Z,19.86
2019-04-21T15:52:51.982Z,19.82
2019-04-21T15:53:57.223Z,19.84
2019-04-21T15:54:52.610Z,19.84
2019-04-21T15:55:53.124Z,19.82
2019-04-21T15:56:27.206Z,19.88
2019-04-21T15:57:26.201Z,19.89
2019-04-21T15:58:26.007Z,19.89
2019-04-21T15:59:26.638Z,19.88
2019-04-21T16:00:27.043Z,19.85
2019-04-21T16:01:25.754Z,19.81
2019-04-21T16:02:26.751Z,19.82
2019-04-21T16:03:27.059Z,19.8
2019-04-21T16:04:25.806Z,19.8
2019-04-21T16:05:26.877Z,19.75
2019-04-21T16:06:25.973Z,19.8
2019-04-21T16:07:26.601Z,19.77
2019-04-21T16:08:27.307Z,19.75
2019-04-21T16:09:37.653Z,19.75
2019-04-21T16:11:26.224Z,19.75
2019-04-21T16:12:29.395Z,19.71
2019-04-21T16:13:26.029Z,19.71
2019-04-21T16:14:27.258Z,19.71
2019-04-21T16:15:26.545Z,19.71
2019-04-21T16:16:36.250Z,19.71
2019-04-21T16:17:25.790Z,19.73
2019-04-21T16:18:25.798Z,19.71
2019-04-21T16:19:30.942Z,19.75
2019-04-21T16:20:26.170Z,19.73
2019-04-21T16:21:26.483Z,19.75
2019-04-21T16:22:26.709Z,19.75
2019-04-21T16:23:26.927Z,19.75
2019-04-21T16:24:25.679Z,19.74
2019-04-21T16:25:28.943Z,19.74
2019-04-21T16:26:28.947Z,19.74
2019-04-21T16:27:26.024Z,19.74
2019-04-21T16:28:27.271Z,19.75
2019-04-21T16:29:27.555Z,19.74
2019-04-21T16:30:26.141Z,19.74
2019-04-21T16:31:25.813Z,19.73
2019-04-21T16:32:26.253Z,19.74
2019-04-21T16:33:27.407Z,19.73
2019-04-21T16:35:27.023Z,19.77
2019-04-21T16:36:25.859Z,19.74
2019-04-21T16:37:25.977Z,19.75
2019-04-21T16:38:26.090Z,19.73
2019-04-21T16:39:27.547Z,19.74
2019-04-21T16:40:25.669Z,19.77
2019-04-21T16:41:26.733Z,19.75
2019-04-21T16:42:25.767Z,19.75
2019-04-21T16:43:27.235Z,19.75
2019-04-21T16:44:27.623Z,19.77
2019-04-21T16:45:25.706Z,19.78
2019-04-21T16:46:25.769Z,19.77
2019-04-21T16:47:26.462Z,19.75
2019-04-21T16:48:25.663Z,19.75
2019-04-21T16:49:27.144Z,19.78
2019-04-21T16:50:28.222Z,19.81
2019-04-21T16:51:26.778Z,19.8
2019-04-21T16:52:26.184Z,19.81
2019-04-21T16:53:26.300Z,19.81
2019-04-21T16:54:26.517Z,19.84
2019-04-21T16:55:27.037Z,19.82
2019-04-21T16:56:27.167Z,19.82
2019-04-21T16:57:26.233Z,19.84
2019-04-21T16:58:32.789Z,19.82
2019-04-21T16:59:26.656Z,19.82
2019-04-21T17:01:32.105Z,19.81
2019-04-21T17:02:25.569Z,19.81
2019-04-21T17:03:26.781Z,19.81
2019-04-21T17:04:26.689Z,19.8
2019-04-21T17:05:25.753Z,19.8
2019-04-21T17:06:27.317Z,19.77
2019-04-21T17:07:26.535Z,19.8
2019-04-21T17:08:26.406Z,19.77
2019-04-21T17:09:26.835Z,19.77
2019-04-21T17:10:26.829Z,19.77
2019-04-21T17:12:30.865Z,19.77
2019-04-21T17:13:25.714Z,19.78
2019-04-21T17:21:32.258Z,19.77
2019-04-21T17:22:26.129Z,19.74
2019-04-21T17:23:27.542Z,19.73
2019-04-21T17:24:26.748Z,19.73
2019-04-21T17:25:29.964Z,19.74
2019-04-21T17:26:27.237Z,19.73
2019-04-21T17:27:27.395Z,19.71
2019-04-21T17:28:26.149Z,19.71
2019-04-21T17:29:25.879Z,19.71
2019-04-21T17:30:26.788Z,19.68
2019-04-21T17:31:26.991Z,19.71
2019-04-21T17:33:35.667Z,19.7
2019-04-21T17:34:40.850Z,19.7
2019-04-21T17:35:27.399Z,19.68
2019-04-21T17:36:27.514Z,19.68
2019-04-21T17:37:34.210Z,19.68
2019-04-21T17:38:26.323Z,19.65
2019-04-21T17:39:27.269Z,19.67
2019-04-21T17:40:26.749Z,19.65
2019-04-21T17:43:26.052Z,19.63
2019-04-21T17:44:27.825Z,19.64
2019-04-21T17:45:27.278Z,19.67
2019-04-21T17:48:27.359Z,19.63
2019-04-21T17:49:25.695Z,19.61
2019-04-21T17:50:25.754Z,19.63
2019-04-21T17:51:26.024Z,19.61
2019-04-21T18:13:30.702Z,19.54
2019-04-21T18:14:26.683Z,19.56
2019-04-21T18:17:27.100Z,19.53
2019-04-21T18:18:26.806Z,19.53
2019-04-21T18:20:26.125Z,19.53
2019-04-21T18:21:27.253Z,19.54
2019-04-21T18:27:30.037Z,19.52
2019-04-21T18:28:26.702Z,19.53
2019-04-21T18:29:25.968Z,19.5
2019-04-21T18:30:26.801Z,19.53
2019-04-21T18:41:30.506Z,19.5
2019-04-21T18:49:29.313Z,19.47
2019-04-21T18:56:31.798Z,19.47
2019-04-21T18:58:32.779Z,19.47
2019-04-21T19:05:30.156Z,19.53
2019-04-21T19:35:31.823Z,19.7
2019-04-21T19:36:30.812Z,19.67
2019-04-21T19:55:25.871Z,19.75
2019-04-21T19:56:26.285Z,19.74
2019-04-21T19:57:27.437Z,19.75
2019-04-21T20:00:26.938Z,19.75
2019-04-21T20:01:25.708Z,19.75
2019-04-21T20:02:27.059Z,19.75
2019-04-21T20:03:26.548Z,19.78
2019-04-21T20:19:26.999Z,19.78
2019-04-21T20:20:27.261Z,19.77
2019-04-21T20:21:26.983Z,19.8
2019-04-21T20:24:56.504Z,19.77
2019-04-21T21:54:27.872Z,19.5
2019-04-21T21:55:25.889Z,19.47
2019-04-21T21:56:27.126Z,19.47
2019-04-21T21:57:26.445Z,19.47
2019-04-21T22:00:26.267Z,19.49
2019-04-21T22:08:25.682Z,19.46
2019-04-21T22:09:26.617Z,19.46
2019-04-21T22:10:25.698Z,19.49
2019-04-21T22:11:26.574Z,19.45
2019-04-21T22:15:35.791Z,19.45
2019-04-21T22:26:25.597Z,19.45
2019-04-21T22:27:25.723Z,19.43
2019-04-21T22:28:25.750Z,19.43
2019-04-21T22:32:51.445Z,19.43
2019-04-21T22:44:25.776Z,19.42
2019-04-21T22:45:25.690Z,19.42
2019-04-21T22:46:26.602Z,19.42
2019-04-21T22:48:30.952Z,19.39
2019-04-21T22:49:26.715Z,19.4
2019-04-21T22:50:26.855Z,19.4
2019-04-21T22:52:35.717Z,19.37
2019-04-21T22:59:37.207Z,19.37
2019-04-21T23:03:35.852Z,19.37
2019-04-21T23:06:43.183Z,19.36
2019-04-21T23:07:28.456Z,19.39
2019-04-21T23:09:26.967Z,19.37
2019-04-21T23:10:25.738Z,19.36
2019-04-21T23:13:34.633Z,19.33
2019-04-21T23:14:26.089Z,19.36
2019-04-21T23:33:34.674Z,19.32
2019-04-21T23:39:39.580Z,19.32
2019-04-21T23:40:33.074Z,19.32
2019-04-21T23:44:26.200Z,19.32
2019-04-21T23:46:42.545Z,19.3
2019-04-21T23:52:25.932Z,19.32
2019-04-21T23:53:25.957Z,19.29
2019-04-21T23:54:25.603Z,19.3
2019-04-21T23:55:25.647Z,19.32
